sensor_id;sensor_type;location;lat;lon;timestamp;P1;durP1;ratioP1;P2;durP2;ratioP2
64550;SDS011;50945;44.472;-123.352;2022-08-21T00:00:07;2.97;;;1.23;;
64550;SDS011;50945;44.472;-123.352;2022-08-21T00:02:35;1.40;;;1.30;;
64550;SDS011;50945;44.472;-123.352;2022-08-21T00:05:03;1.42;;;1.38;;
64550;SDS011;50945;44.472;-123.352;2022-08-21T00:07:30;2.38;;;1.17;;
64550;SDS011;50945;44.472;-123.352;2022-08-21T00:09:58;1.52;;;1.45;;
64550;SDS011;50945;44.472;-123.352;2022-08-21T00:12:24;1.58;;;1.38;;
64550;SDS011;50945;44.472;-123.352;2022-08-21T00:14:53;1.48;;;1.45;;
64550;SDS011;50945;44.472;-123.352;2022-08-21T00:17:20;1.95;;;1.50;;
64550;SDS011;50945;44.472;-123.352;2022-08-21T00:19:47;2.25;;;1.60;;
64550;SDS011;50945;44.472;-123.352;2022-08-21T00:22:14;1.58;;;1.48;;
64550;SDS011;50945;44.472;-123.352;2022-08-21T00:24:41;3.13;;;1.90;;
64550;SDS011;50945;44.472;-123.352;2022-08-21T00:27:07;2.42;;;2.00;;
64550;SDS011;50945;44.472;-123.352;2022-08-21T00:29:33;1.85;;;1.75;;
64550;SDS011;50945;44.472;-123.352;2022-08-21T00:32:00;2.60;;;2.10;;
64550;SDS011;50945;44.472;-123.352;2022-08-21T00:34:26;2.13;;;1.90;;
64550;SDS011;50945;44.472;-123.352;2022-08-21T00:36:53;2.65;;;2.03;;
64550;SDS011;50945;44.472;-123.352;2022-08-21T00:39:19;2.42;;;2.22;;
64550;SDS011;50945;44.472;-123.352;2022-08-21T00:41:46;2.90;;;2.00;;
64550;SDS011;50945;44.472;-123.352;2022-08-21T00:44:14;2.55;;;2.05;;
64550;SDS011;50945;44.472;-123.352;2022-08-21T00:46:41;2.83;;;2.13;;
64550;SDS011;50945;44.472;-123.352;2022-08-21T00:49:10;4.32;;;2.30;;
64550;SDS011;50945;44.472;-123.352;2022-08-21T00:51:39;2.97;;;1.80;;
64550;SDS011;50945;44.472;-123.352;2022-08-21T00:54:15;2.85;;;1.98;;
64550;SDS011;50945;44.472;-123.352;2022-08-21T00:56:44;2.38;;;2.00;;
64550;SDS011;50945;44.472;-123.352;2022-08-21T00:59:15;2.65;;;2.28;;
64550;SDS011;50945;44.472;-123.352;2022-08-21T01:01:42;2.28;;;2.03;;
64550;SDS011;50945;44.472;-123.352;2022-08-21T01:04:09;2.10;;;1.90;;
64550;SDS011;50945;44.472;-123.352;2022-08-21T01:06:36;2.05;;;1.95;;
64550;SDS011;50945;44.472;-123.352;2022-08-21T01:09:03;2.95;;;2.08;;
64550;SDS011;50945;44.472;-123.352;2022-08-21T01:11:30;2.88;;;1.98;;
64550;SDS011;50945;44.472;-123.352;2022-08-21T01:13:56;2.47;;;2.10;;
64550;SDS011;50945;44.472;-123.352;2022-08-21T01:16:23;2.17;;;1.98;;
64550;SDS011;50945;44.472;-123.352;2022-08-21T01:18:50;2.50;;;2.03;;
64550;SDS011;50945;44.472;-123.352;2022-08-21T01:21:19;3.97;;;2.25;;
64550;SDS011;50945;44.472;-123.352;2022-08-21T01:23:50;3.00;;;2.00;;
64550;SDS011;50945;44.472;-123.352;2022-08-21T01:26:20;3.63;;;2.03;;
64550;SDS011;50945;44.472;-123.352;2022-08-21T01:28:52;2.28;;;1.85;;
64550;SDS011;50945;44.472;-123.352;2022-08-21T01:31:25;2.28;;;1.83;;
64550;SDS011;50945;44.472;-123.352;2022-08-21T01:33:53;2.45;;;2.10;;
64550;SDS011;50945;44.472;-123.352;2022-08-21T01:36:21;1.80;;;1.70;;
64550;SDS011;50945;44.472;-123.352;2022-08-21T01:38:48;1.60;;;1.50;;
64550;SDS011;50945;44.472;-123.352;2022-08-21T01:41:15;1.88;;;1.73;;
64550;SDS011;50945;44.472;-123.352;2022-08-21T01:43:42;3.90;;;1.83;;
64550;SDS011;50945;44.472;-123.352;2022-08-21T01:46:10;2.03;;;1.85;;
64550;SDS011;50945;44.472;-123.352;2022-08-21T01:48:36;2.38;;;1.77;;
64550;SDS011;50945;44.472;-123.352;2022-08-21T01:51:04;2.30;;;1.67;;
64550;SDS011;50945;44.472;-123.352;2022-08-21T01:53:32;2.53;;;1.80;;
64550;SDS011;50945;44.472;-123.352;2022-08-21T01:56:06;2.08;;;1.83;;
64550;SDS011;50945;44.472;-123.352;2022-08-21T01:58:35;2.17;;;1.90;;
64550;SDS011;50945;44.472;-123.352;2022-08-21T02:01:02;2.85;;;1.75;;
64550;SDS011;50945;44.472;-123.352;2022-08-21T02:03:29;1.70;;;1.60;;
64550;SDS011;50945;44.472;-123.352;2022-08-21T02:05:56;3.58;;;1.52;;
64550;SDS011;50945;44.472;-123.352;2022-08-21T02:08:23;1.85;;;1.67;;
64550;SDS011;50945;44.472;-123.352;2022-08-21T02:10:50;1.50;;;1.40;;
64550;SDS011;50945;44.472;-123.352;2022-08-21T02:13:18;1.90;;;1.75;;
64550;SDS011;50945;44.472;-123.352;2022-08-21T02:15:45;1.73;;;1.55;;
64550;SDS011;50945;44.472;-123.352;2022-08-21T02:18:11;1.67;;;1.58;;
64550;SDS011;50945;44.472;-123.352;2022-08-21T02:20:42;1.85;;;1.75;;
64550;SDS011;50945;44.472;-123.352;2022-08-21T02:23:12;2.10;;;1.55;;
64550;SDS011;50945;44.472;-123.352;2022-08-21T02:25:39;1.90;;;1.58;;
64550;SDS011;50945;44.472;-123.352;2022-08-21T02:28:08;2.78;;;1.50;;
64550;SDS011;50945;44.472;-123.352;2022-08-21T02:30:37;2.92;;;1.60;;
64550;SDS011;50945;44.472;-123.352;2022-08-21T02:33:06;2.03;;;1.80;;
64550;SDS011;50945;44.472;-123.352;2022-08-21T02:35:35;2.75;;;1.60;;
64550;SDS011;50945;44.472;-123.352;2022-08-21T02:38:04;1.25;;;0.98;;
64550;SDS011;50945;44.472;-123.352;2022-08-21T02:40:34;3.80;;;1.70;;
64550;SDS011;50945;44.472;-123.352;2022-08-21T02:43:02;1.90;;;1.58;;
64550;SDS011;50945;44.472;-123.352;2022-08-21T02:45:30;2.05;;;1.88;;
64550;SDS011;50945;44.472;-123.352;2022-08-21T02:47:59;2.17;;;1.40;;
64550;SDS011;50945;44.472;-123.352;2022-08-21T02:50:30;1.67;;;1.58;;
64550;SDS011;50945;44.472;-123.352;2022-08-21T02:52:59;3.70;;;1.85;;
64550;SDS011;50945;44.472;-123.352;2022-08-21T02:55:27;3.55;;;1.52;;
64550;SDS011;50945;44.472;-123.352;2022-08-21T02:57:55;2.80;;;1.60;;
64550;SDS011;50945;44.472;-123.352;2022-08-21T03:00:24;1.50;;;1.40;;
64550;SDS011;50945;44.472;-123.352;2022-08-21T03:02:52;1.50;;;1.40;;
64550;SDS011;50945;44.472;-123.352;2022-08-21T03:05:21;4.80;;;1.65;;
64550;SDS011;50945;44.472;-123.352;2022-08-21T03:07:49;2.55;;;1.73;;
64550;SDS011;50945;44.472;-123.352;2022-08-21T03:10:15;3.15;;;1.88;;
64550;SDS011;50945;44.472;-123.352;2022-08-21T03:12:42;2.88;;;1.48;;
64550;SDS011;50945;44.472;-123.352;2022-08-21T03:15:09;1.90;;;1.30;;
64550;SDS011;50945;44.472;-123.352;2022-08-21T03:17:37;1.45;;;1.40;;
64550;SDS011;50945;44.472;-123.352;2022-08-21T03:22:31;2.03;;;1.40;;
64550;SDS011;50945;44.472;-123.352;2022-08-21T03:24:58;1.33;;;1.23;;
64550;SDS011;50945;44.472;-123.352;2022-08-21T03:27:25;1.30;;;1.20;;
64550;SDS011;50945;44.472;-123.352;2022-08-21T03:29:53;2.58;;;1.60;;
64550;SDS011;50945;44.472;-123.352;2022-08-21T03:32:21;2.20;;;1.35;;
64550;SDS011;50945;44.472;-123.352;2022-08-21T03:34:47;1.75;;;1.20;;
64550;SDS011;50945;44.472;-123.352;2022-08-21T03:37:14;1.33;;;1.23;;
64550;SDS011;50945;44.472;-123.352;2022-08-21T03:39:43;2.38;;;1.45;;
64550;SDS011;50945;44.472;-123.352;2022-08-21T03:42:10;1.77;;;1.52;;
64550;SDS011;50945;44.472;-123.352;2022-08-21T03:44:37;1.80;;;1.42;;
64550;SDS011;50945;44.472;-123.352;2022-08-21T03:47:05;1.75;;;1.30;;
64550;SDS011;50945;44.472;-123.352;2022-08-21T03:49:31;1.80;;;1.70;;
64550;SDS011;50945;44.472;-123.352;2022-08-21T03:51:59;2.00;;;1.80;;
64550;SDS011;50945;44.472;-123.352;2022-08-21T03:54:26;3.15;;;1.35;;
64550;SDS011;50945;44.472;-123.352;2022-08-21T03:56:52;1.55;;;1.45;;
64550;SDS011;50945;44.472;-123.352;2022-08-21T03:59:19;2.50;;;1.63;;
64550;SDS011;50945;44.472;-123.352;2022-08-21T04:01:56;1.92;;;1.50;;
64550;SDS011;50945;44.472;-123.352;2022-08-21T04:04:26;1.48;;;1.25;;
64550;SDS011;50945;44.472;-123.352;2022-08-21T04:06:53;1.63;;;1.50;;
64550;SDS011;50945;44.472;-123.352;2022-08-21T04:09:20;1.38;;;1.25;;
64550;SDS011;50945;44.472;-123.352;2022-08-21T04:11:47;1.83;;;1.73;;
64550;SDS011;50945;44.472;-123.352;2022-08-21T04:14:14;1.90;;;1.50;;
64550;SDS011;50945;44.472;-123.352;2022-08-21T04:16:42;1.60;;;1.50;;
64550;SDS011;50945;44.472;-123.352;2022-08-21T04:19:09;1.80;;;1.70;;
64550;SDS011;50945;44.472;-123.352;2022-08-21T04:21:36;1.75;;;1.50;;
64550;SDS011;50945;44.472;-123.352;2022-08-21T04:24:04;3.95;;;1.10;;
64550;SDS011;50945;44.472;-123.352;2022-08-21T04:26:32;3.08;;;1.80;;
64550;SDS011;50945;44.472;-123.352;2022-08-21T04:29:00;2.42;;;1.85;;
64550;SDS011;50945;44.472;-123.352;2022-08-21T04:31:27;1.70;;;1.60;;
64550;SDS011;50945;44.472;-123.352;2022-08-21T04:33:54;2.55;;;1.50;;
64550;SDS011;50945;44.472;-123.352;2022-08-21T04:36:22;1.98;;;1.52;;
64550;SDS011;50945;44.472;-123.352;2022-08-21T04:41:14;2.15;;;1.95;;
64550;SDS011;50945;44.472;-123.352;2022-08-21T04:43:40;1.55;;;1.45;;
64550;SDS011;50945;44.472;-123.352;2022-08-21T04:46:08;2.85;;;1.95;;
64550;SDS011;50945;44.472;-123.352;2022-08-21T04:48:34;2.42;;;1.90;;
64550;SDS011;50945;44.472;-123.352;2022-08-21T04:51:08;1.77;;;1.67;;
64550;SDS011;50945;44.472;-123.352;2022-08-21T04:53:44;4.18;;;1.80;;
64550;SDS011;50945;44.472;-123.352;2022-08-21T04:56:15;1.67;;;1.58;;
64550;SDS011;50945;44.472;-123.352;2022-08-21T04:59:06;3.15;;;1.45;;
64550;SDS011;50945;44.472;-123.352;2022-08-21T05:01:38;1.70;;;1.48;;
64550;SDS011;50945;44.472;-123.352;2022-08-21T05:04:07;1.45;;;1.33;;
64550;SDS011;50945;44.472;-123.352;2022-08-21T05:06:35;1.52;;;1.42;;
64550;SDS011;50945;44.472;-123.352;2022-08-21T05:09:04;1.50;;;1.40;;
64550;SDS011;50945;44.472;-123.352;2022-08-21T05:11:31;2.65;;;1.55;;
64550;SDS011;50945;44.472;-123.352;2022-08-21T05:13:58;3.15;;;1.60;;
64550;SDS011;50945;44.472;-123.352;2022-08-21T05:16:25;1.92;;;1.83;;
64550;SDS011;50945;44.472;-123.352;2022-08-21T05:18:52;2.97;;;1.77;;
64550;SDS011;50945;44.472;-123.352;2022-08-21T05:21:18;2.90;;;1.63;;
64550;SDS011;50945;44.472;-123.352;2022-08-21T05:23:46;4.30;;;1.73;;
64550;SDS011;50945;44.472;-123.352;2022-08-21T05:26:12;1.73;;;1.63;;
64550;SDS011;50945;44.472;-123.352;2022-08-21T05:31:05;1.90;;;1.75;;
64550;SDS011;50945;44.472;-123.352;2022-08-21T05:33:31;3.92;;;1.85;;
64550;SDS011;50945;44.472;-123.352;2022-08-21T05:35:57;1.80;;;1.70;;
64550;SDS011;50945;44.472;-123.352;2022-08-21T05:38:24;3.50;;;1.55;;
64550;SDS011;50945;44.472;-123.352;2022-08-21T05:40:52;1.85;;;1.70;;
64550;SDS011;50945;44.472;-123.352;2022-08-21T05:43:19;2.00;;;1.50;;
64550;SDS011;50945;44.472;-123.352;2022-08-21T05:45:46;2.08;;;1.80;;
64550;SDS011;50945;44.472;-123.352;2022-08-21T05:48:23;2.03;;;1.80;;
64550;SDS011;50945;44.472;-123.352;2022-08-21T05:50:51;3.15;;;1.80;;
64550;SDS011;50945;44.472;-123.352;2022-08-21T05:53:18;2.42;;;1.77;;
64550;SDS011;50945;44.472;-123.352;2022-08-21T05:55:46;2.42;;;1.80;;
64550;SDS011;50945;44.472;-123.352;2022-08-21T05:58:14;3.78;;;2.05;;
64550;SDS011;50945;44.472;-123.352;2022-08-21T06:00:43;2.30;;;1.77;;
64550;SDS011;50945;44.472;-123.352;2022-08-21T06:03:13;2.38;;;1.67;;
64550;SDS011;50945;44.472;-123.352;2022-08-21T06:05:42;1.70;;;1.60;;
64550;SDS011;50945;44.472;-123.352;2022-08-21T06:10:35;2.25;;;1.88;;
64550;SDS011;50945;44.472;-123.352;2022-08-21T06:13:01;1.70;;;1.60;;
64550;SDS011;50945;44.472;-123.352;2022-08-21T06:15:28;1.27;;;1.27;;
64550;SDS011;50945;44.472;-123.352;2022-08-21T06:17:58;2.03;;;1.92;;
64550;SDS011;50945;44.472;-123.352;2022-08-21T06:20:24;2.58;;;1.90;;
64550;SDS011;50945;44.472;-123.352;2022-08-21T06:22:51;1.73;;;1.60;;
64550;SDS011;50945;44.472;-123.352;2022-08-21T06:25:17;2.53;;;2.00;;
64550;SDS011;50945;44.472;-123.352;2022-08-21T06:27:44;1.80;;;1.70;;
64550;SDS011;50945;44.472;-123.352;2022-08-21T06:30:11;2.90;;;2.10;;
64550;SDS011;50945;44.472;-123.352;2022-08-21T06:32:38;2.47;;;1.83;;
64550;SDS011;50945;44.472;-123.352;2022-08-21T06:35:05;3.08;;;2.17;;
64550;SDS011;50945;44.472;-123.352;2022-08-21T06:37:32;4.43;;;1.90;;
64550;SDS011;50945;44.472;-123.352;2022-08-21T06:39:58;4.82;;;2.10;;
64550;SDS011;50945;44.472;-123.352;2022-08-21T06:44:53;2.10;;;1.90;;
64550;SDS011;50945;44.472;-123.352;2022-08-21T06:47:20;4.03;;;1.63;;
64550;SDS011;50945;44.472;-123.352;2022-08-21T06:49:47;1.90;;;1.80;;
64550;SDS011;50945;44.472;-123.352;2022-08-21T06:54:40;2.00;;;1.90;;
64550;SDS011;50945;44.472;-123.352;2022-08-21T06:57:06;2.90;;;1.75;;
64550;SDS011;50945;44.472;-123.352;2022-08-21T06:59:33;2.25;;;2.05;;
64550;SDS011;50945;44.472;-123.352;2022-08-21T07:02:01;3.10;;;1.90;;
64550;SDS011;50945;44.472;-123.352;2022-08-21T07:04:28;2.05;;;1.85;;
64550;SDS011;50945;44.472;-123.352;2022-08-21T07:06:55;3.60;;;1.98;;
64550;SDS011;50945;44.472;-123.352;2022-08-21T07:11:48;4.03;;;2.40;;
64550;SDS011;50945;44.472;-123.352;2022-08-21T07:14:17;2.95;;;1.88;;
64550;SDS011;50945;44.472;-123.352;2022-08-21T07:16:44;2.30;;;1.80;;
64550;SDS011;50945;44.472;-123.352;2022-08-21T07:21:36;2.10;;;2.00;;
64550;SDS011;50945;44.472;-123.352;2022-08-21T07:24:02;3.20;;;1.88;;
64550;SDS011;50945;44.472;-123.352;2022-08-21T07:28:55;2.25;;;2.10;;
64550;SDS011;50945;44.472;-123.352;2022-08-21T07:31:22;4.85;;;2.03;;
64550;SDS011;50945;44.472;-123.352;2022-08-21T07:33:50;2.60;;;1.90;;
64550;SDS011;50945;44.472;-123.352;2022-08-21T07:36:16;2.10;;;1.90;;
64550;SDS011;50945;44.472;-123.352;2022-08-21T07:38:43;2.03;;;1.70;;
64550;SDS011;50945;44.472;-123.352;2022-08-21T07:41:13;3.13;;;2.28;;
64550;SDS011;50945;44.472;-123.352;2022-08-21T07:43:43;2.78;;;2.08;;
64550;SDS011;50945;44.472;-123.352;2022-08-21T07:46:10;2.00;;;1.90;;
64550;SDS011;50945;44.472;-123.352;2022-08-21T07:48:36;6.57;;;2.22;;
64550;SDS011;50945;44.472;-123.352;2022-08-21T07:51:05;3.85;;;2.17;;
64550;SDS011;50945;44.472;-123.352;2022-08-21T07:53:34;3.47;;;2.17;;
64550;SDS011;50945;44.472;-123.352;2022-08-21T07:56:01;2.92;;;2.17;;
64550;SDS011;50945;44.472;-123.352;2022-08-21T07:58:30;3.33;;;2.13;;
64550;SDS011;50945;44.472;-123.352;2022-08-21T08:00:57;3.42;;;2.10;;
64550;SDS011;50945;44.472;-123.352;2022-08-21T08:03:23;2.97;;;2.38;;
64550;SDS011;50945;44.472;-123.352;2022-08-21T08:05:50;1.92;;;1.83;;
64550;SDS011;50945;44.472;-123.352;2022-08-21T08:08:16;3.00;;;1.95;;
64550;SDS011;50945;44.472;-123.352;2022-08-21T08:10:42;2.28;;;2.08;;
64550;SDS011;50945;44.472;-123.352;2022-08-21T08:13:10;5.50;;;2.28;;
64550;SDS011;50945;44.472;-123.352;2022-08-21T08:18:02;2.75;;;2.10;;
64550;SDS011;50945;44.472;-123.352;2022-08-21T08:20:29;2.92;;;2.05;;
64550;SDS011;50945;44.472;-123.352;2022-08-21T08:22:55;2.40;;;2.20;;
64550;SDS011;50945;44.472;-123.352;2022-08-21T08:25:22;2.78;;;2.17;;
64550;SDS011;50945;44.472;-123.352;2022-08-21T08:27:49;2.35;;;2.05;;
64550;SDS011;50945;44.472;-123.352;2022-08-21T08:30:16;1.85;;;1.75;;
64550;SDS011;50945;44.472;-123.352;2022-08-21T08:32:44;3.38;;;2.20;;
64550;SDS011;50945;44.472;-123.352;2022-08-21T08:35:11;2.50;;;2.00;;
64550;SDS011;50945;44.472;-123.352;2022-08-21T08:37:38;2.83;;;1.80;;
64550;SDS011;50945;44.472;-123.352;2022-08-21T08:40:18;2.10;;;1.90;;
64550;SDS011;50945;44.472;-123.352;2022-08-21T08:43:05;2.00;;;1.80;;
64550;SDS011;50945;44.472;-123.352;2022-08-21T08:45:32;3.50;;;2.17;;
64550;SDS011;50945;44.472;-123.352;2022-08-21T08:48:04;2.20;;;2.00;;
64550;SDS011;50945;44.472;-123.352;2022-08-21T08:54:09;3.72;;;2.17;;
64550;SDS011;50945;44.472;-123.352;2022-08-21T08:56:14;2.58;;;2.17;;
64550;SDS011;50945;44.472;-123.352;2022-08-21T08:58:40;2.35;;;2.10;;
64550;SDS011;50945;44.472;-123.352;2022-08-21T09:01:13;1.90;;;1.80;;
64550;SDS011;50945;44.472;-123.352;2022-08-21T09:03:43;2.53;;;2.08;;
64550;SDS011;50945;44.472;-123.352;2022-08-21T09:12:25;2.33;;;2.13;;
64550;SDS011;50945;44.472;-123.352;2022-08-21T09:15:20;3.05;;;2.33;;
64550;SDS011;50945;44.472;-123.352;2022-08-21T09:26:02;3.15;;;2.05;;
64550;SDS011;50945;44.472;-123.352;2022-08-21T09:28:42;2.42;;;1.77;;
64550;SDS011;50945;44.472;-123.352;2022-08-21T09:34:00;2.22;;;2.00;;
64550;SDS011;50945;44.472;-123.352;2022-08-21T09:36:32;2.40;;;2.08;;
64550;SDS011;50945;44.472;-123.352;2022-08-21T09:39:05;2.38;;;2.10;;
64550;SDS011;50945;44.472;-123.352;2022-08-21T09:41:33;2.50;;;2.30;;
64550;SDS011;50945;44.472;-123.352;2022-08-21T09:44:05;5.05;;;2.67;;
64550;SDS011;50945;44.472;-123.352;2022-08-21T09:46:33;2.83;;;2.20;;
64550;SDS011;50945;44.472;-123.352;2022-08-21T09:49:02;2.20;;;2.00;;
64550;SDS011;50945;44.472;-123.352;2022-08-21T09:51:30;3.65;;;2.38;;
64550;SDS011;50945;44.472;-123.352;2022-08-21T09:56:33;2.28;;;1.85;;
64550;SDS011;50945;44.472;-123.352;2022-08-21T09:59:30;1.95;;;1.85;;
64550;SDS011;50945;44.472;-123.352;2022-08-21T10:01:59;2.47;;;1.85;;
64550;SDS011;50945;44.472;-123.352;2022-08-21T10:04:28;2.38;;;2.22;;
64550;SDS011;50945;44.472;-123.352;2022-08-21T10:07:06;2.20;;;2.00;;
64550;SDS011;50945;44.472;-123.352;2022-08-21T10:09:37;3.05;;;2.25;;
64550;SDS011;50945;44.472;-123.352;2022-08-21T10:12:10;1.88;;;1.77;;
64550;SDS011;50945;44.472;-123.352;2022-08-21T10:17:43;2.10;;;2.00;;
64550;SDS011;50945;44.472;-123.352;2022-08-21T10:20:25;2.75;;;2.22;;
64550;SDS011;50945;44.472;-123.352;2022-08-21T10:25:33;2.60;;;1.98;;
64550;SDS011;50945;44.472;-123.352;2022-08-21T10:30:46;2.05;;;1.85;;
64550;SDS011;50945;44.472;-123.352;2022-08-21T10:33:40;2.60;;;1.90;;
64550;SDS011;50945;44.472;-123.352;2022-08-21T10:45:08;3.25;;;1.85;;
64550;SDS011;50945;44.472;-123.352;2022-08-21T10:50:10;1.90;;;1.80;;
64550;SDS011;50945;44.472;-123.352;2022-08-21T10:55:33;2.33;;;2.13;;
64550;SDS011;50945;44.472;-123.352;2022-08-21T10:58:12;2.90;;;1.83;;
64550;SDS011;50945;44.472;-123.352;2022-08-21T11:00:54;7.18;;;2.83;;
64550;SDS011;50945;44.472;-123.352;2022-08-21T11:03:39;4.00;;;2.13;;
64550;SDS011;50945;44.472;-123.352;2022-08-21T11:06:14;2.00;;;1.90;;
64550;SDS011;50945;44.472;-123.352;2022-08-21T11:08:50;2.95;;;2.10;;
64550;SDS011;50945;44.472;-123.352;2022-08-21T11:11:26;2.63;;;2.10;;
64550;SDS011;50945;44.472;-123.352;2022-08-21T11:16:56;2.10;;;2.00;;
64550;SDS011;50945;44.472;-123.352;2022-08-21T11:19:33;1.70;;;1.60;;
64550;SDS011;50945;44.472;-123.352;2022-08-21T11:22:21;2.33;;;2.13;;
64550;SDS011;50945;44.472;-123.352;2022-08-21T11:27:55;2.28;;;2.10;;
64550;SDS011;50945;44.472;-123.352;2022-08-21T11:30:29;2.10;;;2.00;;
64550;SDS011;50945;44.472;-123.352;2022-08-21T11:33:27;3.03;;;2.30;;
64550;SDS011;50945;44.472;-123.352;2022-08-21T11:36:35;2.45;;;1.95;;
64550;SDS011;50945;44.472;-123.352;2022-08-21T11:42:01;2.85;;;2.50;;
64550;SDS011;50945;44.472;-123.352;2022-08-21T11:47:15;2.28;;;2.08;;
64550;SDS011;50945;44.472;-123.352;2022-08-21T11:52:43;1.73;;;1.63;;
64550;SDS011;50945;44.472;-123.352;2022-08-21T11:55:28;3.25;;;1.75;;
64550;SDS011;50945;44.472;-123.352;2022-08-21T12:00:41;2.78;;;2.35;;
64550;SDS011;50945;44.472;-123.352;2022-08-21T12:03:13;1.85;;;1.75;;
64550;SDS011;50945;44.472;-123.352;2022-08-21T12:05:55;4.03;;;2.35;;
64550;SDS011;50945;44.472;-123.352;2022-08-21T12:08:30;2.22;;;2.03;;
64550;SDS011;50945;44.472;-123.352;2022-08-21T12:13:40;2.60;;;2.13;;
64550;SDS011;50945;44.472;-123.352;2022-08-21T12:19:28;2.05;;;1.95;;
64550;SDS011;50945;44.472;-123.352;2022-08-21T12:26:53;3.00;;;1.90;;
64550;SDS011;50945;44.472;-123.352;2022-08-21T12:29:33;1.92;;;1.80;;
64550;SDS011;50945;44.472;-123.352;2022-08-21T12:32:04;2.28;;;2.08;;
64550;SDS011;50945;44.472;-123.352;2022-08-21T12:34:50;1.95;;;1.70;;
64550;SDS011;50945;44.472;-123.352;2022-08-21T12:37:38;2.50;;;2.30;;
64550;SDS011;50945;44.472;-123.352;2022-08-21T12:40:19;2.63;;;2.42;;
64550;SDS011;50945;44.472;-123.352;2022-08-21T12:42:47;2.25;;;1.92;;
64550;SDS011;50945;44.472;-123.352;2022-08-21T12:45:18;1.92;;;1.70;;
64550;SDS011;50945;44.472;-123.352;2022-08-21T12:53:06;2.13;;;1.85;;
64550;SDS011;50945;44.472;-123.352;2022-08-21T12:55:41;3.55;;;2.10;;
64550;SDS011;50945;44.472;-123.352;2022-08-21T12:58:21;2.53;;;2.33;;
64550;SDS011;50945;44.472;-123.352;2022-08-21T13:00:50;2.50;;;2.30;;
64550;SDS011;50945;44.472;-123.352;2022-08-21T13:03:19;2.30;;;2.20;;
64550;SDS011;50945;44.472;-123.352;2022-08-21T13:05:46;3.15;;;2.05;;
64550;SDS011;50945;44.472;-123.352;2022-08-21T13:08:16;2.15;;;1.95;;
64550;SDS011;50945;44.472;-123.352;2022-08-21T13:10:45;2.53;;;1.70;;
64550;SDS011;50945;44.472;-123.352;2022-08-21T13:13:18;2.38;;;2.10;;
64550;SDS011;50945;44.472;-123.352;2022-08-21T13:15:47;2.58;;;2.38;;
64550;SDS011;50945;44.472;-123.352;2022-08-21T13:18:23;2.00;;;1.80;;
64550;SDS011;50945;44.472;-123.352;2022-08-21T13:21:01;2.67;;;2.47;;
64550;SDS011;50945;44.472;-123.352;2022-08-21T13:23:30;2.10;;;1.90;;
64550;SDS011;50945;44.472;-123.352;2022-08-21T13:25:57;1.92;;;1.70;;
64550;SDS011;50945;44.472;-123.352;2022-08-21T13:28:25;4.57;;;2.10;;
64550;SDS011;50945;44.472;-123.352;2022-08-21T13:30:59;2.00;;;1.90;;
64550;SDS011;50945;44.472;-123.352;2022-08-21T13:33:26;3.53;;;1.83;;
64550;SDS011;50945;44.472;-123.352;2022-08-21T13:38:26;1.77;;;1.67;;
64550;SDS011;50945;44.472;-123.352;2022-08-21T13:40:56;2.60;;;1.83;;
64550;SDS011;50945;44.472;-123.352;2022-08-21T13:43:34;1.77;;;1.67;;
64550;SDS011;50945;44.472;-123.352;2022-08-21T13:46:02;2.28;;;2.10;;
64550;SDS011;50945;44.472;-123.352;2022-08-21T13:48:35;2.47;;;2.20;;
64550;SDS011;50945;44.472;-123.352;2022-08-21T13:51:03;2.80;;;2.03;;
64550;SDS011;50945;44.472;-123.352;2022-08-21T13:53:31;1.52;;;1.42;;
64550;SDS011;50945;44.472;-123.352;2022-08-21T13:56:00;2.20;;;2.00;;
64550;SDS011;50945;44.472;-123.352;2022-08-21T13:58:29;2.83;;;1.85;;
64550;SDS011;50945;44.472;-123.352;2022-08-21T14:01:15;2.00;;;1.85;;
64550;SDS011;50945;44.472;-123.352;2022-08-21T14:03:53;1.73;;;1.63;;
64550;SDS011;50945;44.472;-123.352;2022-08-21T14:06:27;1.92;;;1.83;;
64550;SDS011;50945;44.472;-123.352;2022-08-21T14:08:59;2.03;;;1.70;;
64550;SDS011;50945;44.472;-123.352;2022-08-21T14:11:33;2.05;;;1.85;;
64550;SDS011;50945;44.472;-123.352;2022-08-21T14:14:05;2.47;;;2.28;;
64550;SDS011;50945;44.472;-123.352;2022-08-21T14:16:57;2.67;;;2.00;;
64550;SDS011;50945;44.472;-123.352;2022-08-21T14:19:27;2.55;;;2.15;;
64550;SDS011;50945;44.472;-123.352;2022-08-21T14:22:21;2.97;;;1.83;;
64550;SDS011;50945;44.472;-123.352;2022-08-21T14:24:48;3.22;;;2.10;;
64550;SDS011;50945;44.472;-123.352;2022-08-21T14:27:24;2.13;;;1.92;;
64550;SDS011;50945;44.472;-123.352;2022-08-21T14:29:56;2.47;;;1.90;;
64550;SDS011;50945;44.472;-123.352;2022-08-21T14:32:27;3.08;;;2.00;;
64550;SDS011;50945;44.472;-123.352;2022-08-21T14:34:56;3.50;;;2.13;;
64550;SDS011;50945;44.472;-123.352;2022-08-21T14:37:23;2.20;;;2.10;;
64550;SDS011;50945;44.472;-123.352;2022-08-21T14:39:50;2.13;;;1.95;;
64550;SDS011;50945;44.472;-123.352;2022-08-21T14:42:17;2.30;;;2.10;;
64550;SDS011;50945;44.472;-123.352;2022-08-21T14:44:43;2.40;;;1.77;;
64550;SDS011;50945;44.472;-123.352;2022-08-21T14:49:36;3.17;;;2.15;;
64550;SDS011;50945;44.472;-123.352;2022-08-21T14:52:02;3.67;;;2.15;;
64550;SDS011;50945;44.472;-123.352;2022-08-21T14:54:30;2.95;;;2.20;;
64550;SDS011;50945;44.472;-123.352;2022-08-21T14:56:58;2.63;;;2.05;;
64550;SDS011;50945;44.472;-123.352;2022-08-21T14:59:30;2.47;;;2.28;;
64550;SDS011;50945;44.472;-123.352;2022-08-21T15:01:58;2.95;;;2.22;;
64550;SDS011;50945;44.472;-123.352;2022-08-21T15:04:24;2.83;;;2.13;;
64550;SDS011;50945;44.472;-123.352;2022-08-21T15:06:51;2.40;;;2.20;;
64550;SDS011;50945;44.472;-123.352;2022-08-21T15:09:17;2.38;;;2.10;;
64550;SDS011;50945;44.472;-123.352;2022-08-21T15:11:43;3.92;;;2.70;;
64550;SDS011;50945;44.472;-123.352;2022-08-21T15:14:10;3.40;;;2.10;;
64550;SDS011;50945;44.472;-123.352;2022-08-21T15:16:44;2.85;;;2.17;;
64550;SDS011;50945;44.472;-123.352;2022-08-21T15:19:11;3.63;;;2.25;;
64550;SDS011;50945;44.472;-123.352;2022-08-21T15:21:37;4.35;;;2.08;;
64550;SDS011;50945;44.472;-123.352;2022-08-21T15:24:04;2.15;;;1.90;;
64550;SDS011;50945;44.472;-123.352;2022-08-21T15:26:30;3.80;;;2.28;;
64550;SDS011;50945;44.472;-123.352;2022-08-21T15:28:58;2.30;;;2.10;;
64550;SDS011;50945;44.472;-123.352;2022-08-21T15:31:27;3.40;;;2.05;;
64550;SDS011;50945;44.472;-123.352;2022-08-21T15:33:54;3.15;;;2.30;;
64550;SDS011;50945;44.472;-123.352;2022-08-21T15:36:20;2.63;;;2.22;;
64550;SDS011;50945;44.472;-123.352;2022-08-21T15:38:46;2.53;;;2.33;;
64550;SDS011;50945;44.472;-123.352;2022-08-21T15:41:13;2.20;;;2.00;;
64550;SDS011;50945;44.472;-123.352;2022-08-21T15:43:47;3.17;;;2.28;;
64550;SDS011;50945;44.472;-123.352;2022-08-21T15:46:16;4.25;;;2.03;;
64550;SDS011;50945;44.472;-123.352;2022-08-21T15:48:44;4.68;;;2.42;;
64550;SDS011;50945;44.472;-123.352;2022-08-21T15:51:11;3.13;;;2.20;;
64550;SDS011;50945;44.472;-123.352;2022-08-21T15:53:39;2.50;;;2.30;;
64550;SDS011;50945;44.472;-123.352;2022-08-21T15:58:52;2.83;;;2.08;;
64550;SDS011;50945;44.472;-123.352;2022-08-21T16:01:26;2.67;;;2.45;;
64550;SDS011;50945;44.472;-123.352;2022-08-21T16:03:54;2.17;;;2.00;;
64550;SDS011;50945;44.472;-123.352;2022-08-21T16:06:21;4.90;;;2.50;;
64550;SDS011;50945;44.472;-123.352;2022-08-21T16:08:47;5.00;;;2.30;;
64550;SDS011;50945;44.472;-123.352;2022-08-21T16:13:42;5.25;;;2.33;;
64550;SDS011;50945;44.472;-123.352;2022-08-21T16:16:12;2.60;;;2.40;;